Time;durP1;ratioP1;P1;durP2;ratioP2;P2;SDS_P1;SDS_P2;PMS_P1;PMS_P2;Temp;Humidity;BMP_temperature;BMP_pressure;BME280_temperature;BME280_humidity;BME280_pressure;Samples;Min_cycle;Max_cycle;Signal;HPM_P1;HPM_P2
2023/03/18 00:01:02;;;;;;;37.00;8.63;;;18.00;56.50;;;;;;5027059;28;20207;-92
2023/03/18 00:03:33;;;;;;;33.03;8.93;;;18.10;56.60;;;;;;5026211;28;20207;-94
2023/03/18 00:06:06;;;;;;;53.07;10.33;;;18.10;56.60;;;;;;5028105;28;20212;-90
2023/03/18 00:08:33;;;;;;;39.03;9.40;;;18.00;56.50;;;;;;5026546;28;20186;-91
2023/03/18 00:11:01;;;;;;;44.90;9.80;;;18.00;56.50;;;;;;5008642;28;20193;-90
2023/03/18 00:13:28;;;;;;;28.70;8.37;;;18.00;56.50;;;;;;5008317;28;20242;-89
2023/03/18 00:16:07;;;;;;;55.40;9.90;;;18.00;56.50;;;;;;5021421;28;20218;-90
2023/03/18 00:18:34;;;;;;;33.33;8.20;;;18.00;56.50;;;;;;5024861;28;20214;-90
2023/03/18 00:21:02;;;;;;;59.57;10.90;;;18.00;56.60;;;;;;5026497;28;20204;-90
2023/03/18 00:23:31;;;;;;;36.80;9.00;;;18.00;56.60;;;;;;5028044;28;20269;-91
2023/03/18 00:26:00;;;;;;;44.50;9.80;;;18.00;56.60;;;;;;5025241;28;20699;-91
2023/03/18 00:28:32;;;;;;;48.93;10.47;;;18.00;56.60;;;;;;5025845;28;20218;-91
2023/03/18 00:31:07;;;;;;;44.80;9.13;;;18.00;56.60;;;;;;5027336;28;20299;-90
2023/03/18 00:33:35;;;;;;;44.33;9.87;;;18.00;56.70;;;;;;5025419;28;20612;-91
2023/03/18 00:36:08;;;;;;;43.60;8.93;;;17.90;56.60;;;;;;5024975;28;20241;-92
2023/03/18 00:38:37;;;;;;;63.60;10.73;;;17.90;56.50;;;;;;5027021;28;20646;-90
2023/03/18 00:41:14;;;;;;;43.90;8.93;;;17.90;56.50;;;;;;5028693;28;20201;-90
2023/03/18 00:43:51;;;;;;;37.00;9.13;;;17.90;57.10;;;;;;5023287;28;20313;-91
2023/03/18 00:46:21;;;;;;;47.63;8.90;;;17.90;56.60;;;;;;5029261;28;20570;-91
2023/03/18 00:48:48;;;;;;;56.73;10.60;;;17.90;56.60;;;;;;5030711;28;20204;-92
2023/03/18 00:51:16;;;;;;;35.30;8.57;;;17.90;56.60;;;;;;5014569;28;20208;-91
2023/03/18 00:53:50;;;;;;;36.90;8.80;;;17.90;56.60;;;;;;5027997;28;20213;-91
2023/03/18 00:56:19;;;;;;;37.83;8.33;;;17.90;56.60;;;;;;5028587;28;20232;-90
2023/03/18 00:58:46;;;;;;;71.43;11.40;;;17.90;56.60;;;;;;5024484;28;20748;-91
2023/03/18 01:01:14;;;;;;;54.60;10.07;;;17.90;56.60;;;;;;5028042;28;20208;-91
2023/03/18 01:03:43;;;;;;;33.03;8.43;;;17.90;56.60;;;;;;5030023;28;20705;-92
2023/03/18 01:06:11;;;;;;;58.97;10.50;;;17.90;56.60;;;;;;5029740;28;20271;-93
2023/03/18 01:08:41;;;;;;;53.93;9.47;;;17.80;56.50;;;;;;5028975;28;20724;-91
2023/03/18 01:11:10;;;;;;;40.67;8.43;;;17.90;56.60;;;;;;5020335;28;20225;-92
2023/03/18 01:13:39;;;;;;;35.53;7.90;;;17.90;56.60;;;;;;5030482;28;20232;-90
2023/03/18 01:16:08;;;;;;;37.03;8.90;;;17.90;56.60;;;;;;5031092;28;20261;-91
2023/03/18 01:18:35;;;;;;;65.23;9.83;;;17.90;56.60;;;;;;5029321;28;20214;-90
2023/03/18 01:21:03;;;;;;;37.67;8.93;;;17.80;56.60;;;;;;5030306;28;20250;-90
2023/03/18 01:23:30;;;;;;;45.53;8.63;;;17.90;56.70;;;;;;5029876;28;20293;-90
2023/03/18 01:26:02;;;;;;;60.93;9.77;;;17.90;56.60;;;;;;5029572;28;20668;-90
2023/03/18 01:28:30;;;;;;;36.30;8.57;;;17.80;56.50;;;;;;5023192;28;20212;-92
2023/03/18 01:30:58;;;;;;;33.07;7.90;;;17.80;56.60;;;;;;5030011;28;20208;-90
2023/03/18 01:33:26;;;;;;;34.50;7.73;;;17.80;56.60;;;;;;5029773;28;20266;-92
2023/03/18 01:35:58;;;;;;;58.07;9.67;;;17.80;56.60;;;;;;5026588;28;20233;-91
2023/03/18 01:38:29;;;;;;;41.60;8.63;;;17.80;56.60;;;;;;5028919;28;20219;-91
2023/03/18 01:40:56;;;;;;;40.20;8.50;;;17.90;56.70;;;;;;5030582;28;20649;-90
2023/03/18 01:43:25;;;;;;;37.40;7.77;;;17.80;56.60;;;;;;5028976;28;20565;-92
2023/03/18 01:45:56;;;;;;;35.47;7.83;;;17.80;56.60;;;;;;5028077;28;20218;-90
2023/03/18 01:48:25;;;;;;;30.23;7.37;;;17.80;56.60;;;;;;5028202;28;20734;-91
2023/03/18 01:50:59;;;;;;;36.73;7.87;;;17.80;56.60;;;;;;5028684;28;20239;-91
2023/03/18 01:53:31;;;;;;;33.00;7.97;;;17.80;56.60;;;;;;5027555;28;20319;-90
2023/03/18 01:58:44;;;;;;;40.60;7.80;;;17.80;57.20;;;;;;5026519;28;20211;-90
2023/03/18 02:01:24;;;;;;;49.40;8.77;;;17.80;56.60;;;;;;5028164;28;20208;-91
2023/03/18 02:04:17;;;;;;;63.30;9.53;;;17.80;56.60;;;;;;5029472;28;20215;-90
2023/03/18 02:06:44;;;;;;;32.47;7.40;;;17.80;56.60;;;;;;5028912;28;20540;-90
2023/03/18 02:09:11;;;;;;;32.53;8.07;;;17.80;56.60;;;;;;5028172;28;20287;-90
2023/03/18 02:11:43;;;;;;;43.90;8.33;;;17.80;56.60;;;;;;5026842;28;20208;-91
2023/03/18 02:14:13;;;;;;;29.07;7.20;;;17.70;56.60;;;;;;5025706;28;20232;-90
2023/03/18 02:16:46;;;;;;;33.03;7.67;;;17.80;56.70;;;;;;5029497;28;20237;-89
2023/03/18 02:19:26;;;;;;;55.80;9.80;;;17.70;56.60;;;;;;5031569;28;20210;-91
2023/03/18 02:22:02;;;;;;;46.50;8.47;;;17.70;56.70;;;;;;5099367;22;20299;-90
2023/03/18 02:24:38;;;;;;;32.73;7.33;;;17.70;56.70;;;;;;5062446;28;20736;-91
2023/03/18 02:27:17;;;;;;;53.40;8.73;;;17.70;56.60;;;;;;5066145;28;20221;-91
2023/03/18 02:29:45;;;;;;;37.73;8.00;;;17.80;56.80;;;;;;5064853;28;20209;-91
2023/03/18 02:32:14;;;;;;;36.73;7.47;;;17.70;56.70;;;;;;5053505;28;20582;-91
2023/03/18 02:34:42;;;;;;;48.77;8.80;;;17.70;56.70;;;;;;5066312;28;20202;-91
2023/03/18 02:37:10;;;;;;;70.37;10.53;;;17.70;56.60;;;;;;5065943;28;20232;-90
2023/03/18 02:39:38;;;;;;;38.27;8.10;;;17.70;56.60;;;;;;5068200;28;20201;-90
2023/03/18 02:42:05;;;;;;;51.73;8.50;;;17.70;56.70;;;;;;5066353;28;20733;-90
2023/03/18 02:44:39;;;;;;;37.97;7.60;;;17.70;56.70;;;;;;5071638;22;20590;-92
2023/03/18 02:47:10;;;;;;;44.63;7.80;;;17.70;56.70;;;;;;5068062;28;20233;-90
2023/03/18 02:49:37;;;;;;;32.70;7.70;;;17.70;56.70;;;;;;5034682;28;20944;-91
2023/03/18 02:52:05;;;;;;;49.30;8.67;;;17.80;56.80;;;;;;5051362;28;20232;-91
2023/03/18 02:54:32;;;;;;;46.73;8.47;;;17.70;56.70;;;;;;5047124;28;20306;-90
2023/03/18 02:57:00;;;;;;;36.80;7.50;;;17.70;56.60;;;;;;5053534;28;20299;-91
2023/03/18 02:59:27;;;;;;;34.57;7.87;;;17.70;56.70;;;;;;5055143;28;20287;-90
2023/03/18 03:01:56;;;;;;;52.37;9.30;;;17.70;56.70;;;;;;5051639;28;20716;-90
2023/03/18 03:04:25;;;;;;;35.00;6.90;;;17.70;56.70;;;;;;5051123;28;20285;-91
2023/03/18 03:06:55;;;;;;;50.50;8.27;;;17.70;56.70;;;;;;5054766;28;20566;-91
2023/03/18 03:09:22;;;;;;;40.33;8.37;;;17.70;56.70;;;;;;5058070;28;20209;-90
2023/03/18 03:11:50;;;;;;;35.57;7.37;;;17.70;56.60;;;;;;5053625;28;20337;-91
2023/03/18 03:14:17;;;;;;;46.63;7.93;;;17.60;56.60;;;;;;5049756;28;20268;-90
2023/03/18 03:16:45;;;;;;;33.47;7.47;;;17.70;56.70;;;;;;5068297;28;20231;-91
2023/03/18 03:19:14;;;;;;;33.57;7.57;;;17.70;56.60;;;;;;5044670;28;20210;-92
2023/03/18 03:21:42;;;;;;;68.03;9.57;;;17.60;56.60;;;;;;5063347;28;20209;-92
2023/03/18 03:24:09;;;;;;;35.60;6.83;;;17.60;56.60;;;;;;5059744;28;20374;-92
2023/03/18 03:26:36;;;;;;;35.73;6.97;;;17.60;56.60;;;;;;5066774;28;20212;-91
2023/03/18 03:29:05;;;;;;;34.90;6.90;;;17.60;56.60;;;;;;5042546;28;20195;-91
2023/03/18 03:34:32;;;;;;;34.53;7.13;;;17.60;56.60;;;;;;5039879;28;20655;-90
2023/03/18 03:36:59;;;;;;;42.73;7.40;;;17.70;57.20;;;;;;5062973;28;20233;-90
2023/03/18 03:39:26;;;;;;;41.17;7.53;;;17.60;56.60;;;;;;5050117;28;20202;-90
2023/03/18 03:41:53;;;;;;;43.83;7.83;;;17.60;56.60;;;;;;5064941;28;20673;-93
2023/03/18 03:44:20;;;;;;;38.93;6.80;;;17.60;56.60;;;;;;5087921;22;20333;-92
2023/03/18 03:46:48;;;;;;;38.63;7.73;;;17.60;56.60;;;;;;5068338;28;20755;-91
2023/03/18 03:49:14;;;;;;;33.73;7.20;;;17.60;56.60;;;;;;5066800;28;20267;-91
2023/03/18 03:51:43;;;;;;;41.90;7.60;;;17.60;56.60;;;;;;5053486;28;20208;-92
2023/03/18 03:54:55;;;;;;;38.27;7.10;;;17.60;56.60;;;;;;5057980;28;20231;-90
2023/03/18 03:57:23;;;;;;;49.83;8.07;;;17.60;56.60;;;;;;5064401;28;20237;-90
2023/03/18 04:00:12;;;;;;;68.03;9.20;;;17.60;56.60;;;;;;5057991;28;20209;-90
2023/03/18 04:02:39;;;;;;;62.13;9.47;;;17.60;56.60;;;;;;5060623;28;20217;-90
2023/03/18 04:05:07;;;;;;;40.10;8.23;;;17.60;56.60;;;;;;5067202;28;20219;-90
2023/03/18 04:07:37;;;;;;;31.10;6.97;;;17.50;56.50;;;;;;5067293;28;20209;-90
2023/03/18 04:10:05;;;;;;;40.50;7.83;;;17.50;56.50;;;;;;5066188;28;20214;-90
2023/03/18 04:12:32;;;;;;;49.77;8.60;;;17.60;56.60;;;;;;5064658;28;20673;-90
2023/03/18 04:14:59;;;;;;;51.13;8.80;;;17.50;56.50;;;;;;5065878;28;20256;-91
2023/03/18 04:17:25;;;;;;;38.50;7.60;;;17.50;56.50;;;;;;5064686;28;20317;-90
2023/03/18 04:19:53;;;;;;;55.13;8.83;;;17.50;56.50;;;;;;5062802;28;20202;-90
2023/03/18 04:22:20;;;;;;;40.53;7.80;;;17.50;56.50;;;;;;5067805;28;20209;-91
2023/03/18 04:24:48;;;;;;;47.93;8.60;;;17.50;56.50;;;;;;5068958;28;20213;-91
2023/03/18 04:27:15;;;;;;;40.90;7.80;;;17.40;56.50;;;;;;5069257;28;20307;-90
2023/03/18 04:29:42;;;;;;;54.27;8.50;;;17.50;56.50;;;;;;5067483;28;20302;-91
2023/03/18 04:32:09;;;;;;;34.00;7.30;;;17.40;56.50;;;;;;5069880;28;20300;-91
2023/03/18 04:34:37;;;;;;;46.73;8.07;;;17.50;56.50;;;;;;5069576;28;20214;-91
2023/03/18 04:37:23;;;;;;;123.80;13.77;;;17.40;56.50;;;;;;5074223;22;20241;-90
2023/03/18 04:39:51;;;;;;;40.70;7.53;;;17.50;56.50;;;;;;5048990;28;20205;-90
2023/03/18 04:42:19;;;;;;;29.03;6.87;;;17.50;56.50;;;;;;5050130;28;20208;-90
2023/03/18 04:44:46;;;;;;;35.13;7.07;;;17.40;56.50;;;;;;5048807;28;20640;-91
2023/03/18 04:47:13;;;;;;;36.40;7.40;;;17.40;56.50;;;;;;5049024;28;20217;-90
2023/03/18 04:49:53;;;;;;;37.57;7.87;;;17.40;56.50;;;;;;5049962;28;20204;-90
2023/03/18 04:52:20;;;;;;;36.60;7.43;;;17.40;56.50;;;;;;5050030;28;20212;-91
2023/03/18 04:54:47;;;;;;;58.60;9.73;;;17.40;56.50;;;;;;5047919;28;20237;-91
2023/03/18 04:57:17;;;;;;;40.87;8.30;;;17.40;56.50;;;;;;5034187;28;20608;-91
2023/03/18 05:00:06;;;;;;;35.53;7.63;;;17.40;56.40;;;;;;5045516;28;20643;-91
2023/03/18 05:02:42;;;;;;;89.77;11.83;;;17.40;56.50;;;;;;5035026;28;20302;-91
2023/03/18 05:05:10;;;;;;;40.57;8.47;;;17.40;56.40;;;;;;5049809;28;20240;-92
2023/03/18 05:07:37;;;;;;;45.17;8.53;;;17.40;56.50;;;;;;5049657;28;20214;-91
2023/03/18 05:10:05;;;;;;;53.97;8.80;;;17.40;56.50;;;;;;5057650;28;20207;-92
2023/03/18 05:15:43;;;;;;;39.83;8.27;;;17.40;56.50;;;;;;5047641;28;20207;-92
2023/03/18 05:18:11;;;;;;;37.47;8.20;;;17.40;57.00;;;;;;5050303;28;20223;-91
2023/03/18 05:20:38;;;;;;;40.03;8.57;;;17.30;56.30;;;;;;5049706;28;20237;-91
2023/03/18 05:23:05;;;;;;;32.67;6.97;;;17.30;56.30;;;;;;5051367;28;20226;-91
2023/03/18 05:25:32;;;;;;;36.93;8.03;;;17.30;56.30;;;;;;5049696;28;20208;-90
2023/03/18 05:28:01;;;;;;;37.70;8.07;;;17.30;56.40;;;;;;5049495;28;20199;-91
2023/03/18 05:30:30;;;;;;;41.50;8.80;;;17.30;56.40;;;;;;5049714;28;20742;-91
2023/03/18 05:32:57;;;;;;;34.40;7.73;;;17.30;56.30;;;;;;5056007;28;20203;-91
2023/03/18 05:35:24;;;;;;;29.13;6.80;;;17.30;56.40;;;;;;5050157;28;20238;-90
2023/03/18 05:37:51;;;;;;;45.03;8.60;;;17.30;56.40;;;;;;5048935;28;20568;-91
2023/03/18 05:40:18;;;;;;;33.70;7.77;;;17.30;56.40;;;;;;5049771;28;20206;-91
2023/03/18 05:42:48;;;;;;;40.03;8.57;;;17.30;56.40;;;;;;5049287;28;20215;-90
2023/03/18 05:45:16;;;;;;;52.17;9.03;;;17.30;56.40;;;;;;5048555;28;20620;-90
2023/03/18 05:50:32;;;;;;;48.47;8.50;;;17.20;56.30;;;;;;5051057;28;20210;-91
2023/03/18 05:52:59;;;;;;;34.10;7.93;;;17.20;56.40;;;;;;5049125;28;20205;-91
2023/03/18 05:55:27;;;;;;;38.23;7.90;;;17.30;56.50;;;;;;5051117;28;20530;-90
2023/03/18 05:57:54;;;;;;;42.30;8.20;;;17.20;56.40;;;;;;5047512;28;20254;-91
2023/03/18 06:00:23;;;;;;;29.47;7.67;;;17.20;56.40;;;;;;5048002;28;20207;-92
2023/03/18 06:02:53;;;;;;;43.33;8.83;;;17.20;56.40;;;;;;5047039;28;20218;-91
2023/03/18 06:05:21;;;;;;;37.13;7.73;;;17.20;56.40;;;;;;5041058;28;20206;-92
2023/03/18 06:07:50;;;;;;;36.97;8.13;;;17.20;56.40;;;;;;5048474;28;20201;-92
2023/03/18 06:10:17;;;;;;;60.73;9.47;;;17.20;56.40;;;;;;5048817;28;20302;-91
2023/03/18 06:12:44;;;;;;;40.47;7.83;;;17.30;56.50;;;;;;5046462;28;20200;-90
2023/03/18 06:15:13;;;;;;;39.37;8.50;;;17.20;56.40;;;;;;5043430;28;20234;-91
2023/03/18 06:17:41;;;;;;;42.03;9.07;;;17.20;56.40;;;;;;5048641;28;20230;-91
2023/03/18 06:20:10;;;;;;;38.23;7.97;;;17.20;56.40;;;;;;5045231;28;20209;-91
2023/03/18 06:22:37;;;;;;;41.70;8.47;;;17.20;56.50;;;;;;5046369;28;20255;-91
2023/03/18 06:25:07;;;;;;;47.50;9.47;;;17.20;56.50;;;;;;5043761;28;20549;-91
2023/03/18 06:27:37;;;;;;;30.53;7.60;;;17.20;56.50;;;;;;5048704;28;20268;-91
2023/03/18 06:30:05;;;;;;;37.70;8.27;;;17.20;56.50;;;;;;5044374;28;20212;-91
2023/03/18 06:32:32;;;;;;;40.47;9.17;;;17.20;56.50;;;;;;5047295;28;20220;-92
2023/03/18 06:35:01;;;;;;;28.67;7.70;;;17.20;56.50;;;;;;5041915;28;20202;-92
2023/03/18 06:37:28;;;;;;;30.17;7.83;;;17.20;56.50;;;;;;5047923;28;20230;-92
2023/03/18 06:39:55;;;;;;;26.33;7.87;;;17.20;56.40;;;;;;5047558;28;20211;-91
2023/03/18 06:42:22;;;;;;;35.37;8.40;;;17.20;56.50;;;;;;5045475;28;20212;-91
2023/03/18 06:44:50;;;;;;;31.83;8.20;;;17.20;56.50;;;;;;5046314;28;20769;-91
2023/03/18 06:47:27;;;;;;;26.57;7.77;;;17.20;56.50;;;;;;5045720;28;20219;-91
2023/03/18 06:50:46;;;;;;;33.77;8.37;;;17.20;56.50;;;;;;5035154;28;20567;-91
2023/03/18 06:53:18;;;;;;;43.17;9.10;;;17.20;56.50;;;;;;5039391;28;20622;-91
2023/03/18 06:55:56;;;;;;;26.97;7.67;;;17.20;56.50;;;;;;5044271;28;20795;-90
2023/03/18 06:58:50;;;;;;;32.97;7.93;;;17.20;56.50;;;;;;5047942;28;20683;-91
2023/03/18 07:01:18;;;;;;;28.17;8.03;;;17.20;56.50;;;;;;5037578;28;20210;-90
2023/03/18 07:03:45;;;;;;;39.13;8.60;;;17.20;56.50;;;;;;5045751;28;20264;-90
2023/03/18 07:06:24;;;;;;;66.47;11.07;;;17.20;56.50;;;;;;5043571;28;20579;-90
2023/03/18 07:08:53;;;;;;;40.87;9.70;;;17.10;56.50;;;;;;5045622;28;20217;-89
2023/03/18 07:11:20;;;;;;;42.47;9.10;;;17.10;56.40;;;;;;5047142;28;20217;-90
2023/03/18 07:13:47;;;;;;;49.60;9.87;;;17.10;56.50;;;;;;5045824;28;20203;-90
2023/03/18 07:16:20;;;;;;;50.57;10.07;;;17.10;56.50;;;;;;5046069;28;20207;-90
2023/03/18 07:18:47;;;;;;;49.83;10.30;;;17.00;56.40;;;;;;5036643;28;20231;-90
2023/03/18 07:21:15;;;;;;;37.63;9.33;;;17.10;56.50;;;;;;5047840;28;20203;-89
2023/03/18 07:23:42;;;;;;;50.83;9.67;;;17.10;56.50;;;;;;5046156;28;20199;-90
2023/03/18 07:26:12;;;;;;;44.23;10.43;;;17.10;56.50;;;;;;5044941;28;20209;-90
2023/03/18 07:28:39;;;;;;;63.87;12.03;;;17.10;56.50;;;;;;5041964;28;20203;-90
2023/03/18 07:31:09;;;;;;;74.57;13.00;;;17.10;56.50;;;;;;5047026;28;20277;-90
2023/03/18 07:33:36;;;;;;;45.30;11.00;;;17.10;56.50;;;;;;5044572;28;20278;-90
2023/03/18 07:36:03;;;;;;;58.73;11.97;;;17.10;56.60;;;;;;5045215;28;20288;-90
2023/03/18 07:38:30;;;;;;;51.83;11.73;;;17.10;56.60;;;;;;5044236;28;20239;-89
2023/03/18 07:40:59;;;;;;;47.17;11.60;;;17.20;56.70;;;;;;5047458;28;20204;-90
2023/03/18 07:43:28;;;;;;;43.17;11.23;;;17.10;56.60;;;;;;5043198;28;20688;-88
2023/03/18 07:45:55;;;;;;;44.03;10.73;;;17.20;56.70;;;;;;5044128;28;20234;-91
2023/03/18 07:48:22;;;;;;;46.33;10.87;;;17.10;56.70;;;;;;5047735;28;20217;-91
2023/03/18 07:50:48;;;;;;;49.17;11.90;;;17.10;56.60;;;;;;5046092;28;20221;-88
2023/03/18 07:53:15;;;;;;;71.97;13.93;;;17.10;56.70;;;;;;5042219;28;20300;-87
2023/03/18 07:55:43;;;;;;;42.27;12.10;;;17.20;56.80;;;;;;5048867;28;20200;-88
2023/03/18 07:58:11;;;;;;;62.87;13.70;;;17.10;56.70;;;;;;5049900;28;21223;-92
2023/03/18 08:00:39;;;;;;;59.07;13.20;;;17.10;56.70;;;;;;5046897;28;20639;-90
2023/03/18 08:03:19;;;;;;;49.03;12.93;;;17.10;56.70;;;;;;5043959;28;20924;-90
2023/03/18 08:05:46;;;;;;;53.57;12.93;;;17.10;56.70;;;;;;5047061;28;20229;-90
2023/03/18 08:08:16;;;;;;;41.53;12.03;;;17.20;56.80;;;;;;5051656;28;20188;-91
2023/03/18 08:10:43;;;;;;;49.77;13.53;;;17.20;56.80;;;;;;5045651;28;20211;-91
2023/03/18 08:13:11;;;;;;;43.57;11.97;;;17.10;56.70;;;;;;5049497;28;20303;-91
2023/03/18 08:15:40;;;;;;;66.43;14.70;;;17.20;56.90;;;;;;5048108;28;20575;-90
2023/03/18 08:18:08;;;;;;;48.47;12.70;;;17.20;56.90;;;;;;5048482;28;20257;-91
2023/03/18 08:20:37;;;;;;;51.03;13.53;;;17.20;56.80;;;;;;5041208;28;20610;-91
2023/03/18 08:23:04;;;;;;;56.57;13.47;;;17.20;56.90;;;;;;5043830;28;20203;-90
2023/03/18 08:25:31;;;;;;;46.37;13.00;;;17.20;56.90;;;;;;5045649;28;20660;-90
2023/03/18 08:27:58;;;;;;;53.27;14.07;;;17.20;56.90;;;;;;5048627;28;20683;-90
2023/03/18 08:30:27;;;;;;;45.70;13.83;;;17.20;56.90;;;;;;5048687;28;20709;-91
2023/03/18 08:33:11;;;;;;;228.37;26.07;;;17.20;56.90;;;;;;5058894;22;20739;-90
2023/03/18 08:35:40;;;;;;;40.47;13.23;;;17.20;56.90;;;;;;5069901;28;20214;-90
2023/03/18 08:38:08;;;;;;;45.30;13.10;;;17.20;56.90;;;;;;5067275;28;20227;-91
2023/03/18 08:40:35;;;;;;;44.87;13.10;;;17.20;56.80;;;;;;5069417;28;20601;-90
2023/03/18 08:43:04;;;;;;;49.40;13.83;;;17.20;56.90;;;;;;5068028;28;20296;-90
2023/03/18 08:45:31;;;;;;;42.80;13.57;;;17.20;56.90;;;;;;5049192;28;20206;-90
2023/03/18 08:47:59;;;;;;;61.87;14.60;;;17.20;56.90;;;;;;5047823;28;20227;-90
2023/03/18 08:50:31;;;;;;;37.20;12.93;;;17.20;56.90;;;;;;5050558;28;20271;-90
2023/03/18 08:53:02;;;;;;;53.63;14.90;;;17.20;56.90;;;;;;5048916;28;20218;-90
2023/03/18 08:55:31;;;;;;;42.63;13.27;;;17.20;56.90;;;;;;5048832;28;20265;-90
2023/03/18 08:57:58;;;;;;;44.37;13.37;;;17.20;56.90;;;;;;5048945;28;20708;-90
2023/03/18 09:00:27;;;;;;;38.63;12.57;;;17.30;57.00;;;;;;5049340;28;20211;-90
2023/03/18 09:02:54;;;;;;;52.97;14.13;;;17.20;56.90;;;;;;5050112;28;20214;-90
2023/03/18 09:05:21;;;;;;;41.37;13.77;;;17.30;57.00;;;;;;5047996;28;20550;-90
2023/03/18 09:07:49;;;;;;;40.33;13.20;;;17.20;56.90;;;;;;5048669;28;20208;-91
2023/03/18 09:10:17;;;;;;;42.93;13.20;;;17.20;56.90;;;;;;5047250;28;20198;-91
2023/03/18 09:12:45;;;;;;;71.47;14.83;;;17.20;56.90;;;;;;5039835;28;20304;-91
2023/03/18 09:15:14;;;;;;;41.93;13.73;;;17.20;57.00;;;;;;5050450;28;20193;-90
2023/03/18 09:17:44;;;;;;;58.37;14.13;;;17.30;57.10;;;;;;5049919;28;20202;-91
2023/03/18 09:20:16;;;;;;;50.37;14.23;;;17.20;57.00;;;;;;5048120;28;20218;-90
2023/03/18 09:22:44;;;;;;;52.23;14.33;;;17.30;57.10;;;;;;5057589;28;20265;-91
2023/03/18 09:25:13;;;;;;;46.20;14.07;;;17.30;57.10;;;;;;5057024;28;20314;-90
2023/03/18 09:27:41;;;;;;;43.73;13.37;;;17.30;57.10;;;;;;5050933;28;20607;-90
2023/03/18 09:30:10;;;;;;;53.80;14.40;;;17.30;57.10;;;;;;5040482;28;20196;-91
2023/03/18 09:32:37;;;;;;;55.40;14.63;;;17.30;57.10;;;;;;5049004;28;20222;-91
2023/03/18 09:35:08;;;;;;;40.70;12.97;;;17.30;57.10;;;;;;5046804;28;20675;-90
2023/03/18 09:37:35;;;;;;;49.77;13.57;;;17.30;57.10;;;;;;5048051;28;20203;-91
2023/03/18 09:40:07;;;;;;;48.63;13.70;;;17.30;57.10;;;;;;5047618;28;20717;-92
2023/03/18 09:42:56;;;;;;;43.37;13.10;;;17.30;57.10;;;;;;5048032;28;20706;-91
2023/03/18 09:45:29;;;;;;;40.73;12.73;;;17.30;57.20;;;;;;5030473;28;20212;-91
2023/03/18 09:48:10;;;;;;;100.57;17.03;;;17.30;57.10;;;;;;5044768;28;20655;-88
2023/03/18 09:50:47;;;;;;;53.20;13.97;;;17.30;57.10;;;;;;5046700;28;20293;-88
2023/03/18 09:53:21;;;;;;;56.97;14.03;;;17.30;57.10;;;;;;5043836;28;20249;-86
2023/03/18 09:55:51;;;;;;;54.57;13.60;;;17.40;57.20;;;;;;5041006;28;20223;-88
2023/03/18 09:58:24;;;;;;;38.50;12.73;;;17.40;57.30;;;;;;5047341;28;20236;-89
2023/03/18 10:00:55;;;;;;;36.13;10.90;;;17.40;57.30;;;;;;5049209;28;20678;-90
2023/03/18 10:03:31;;;;;;;42.40;11.80;;;17.40;57.20;;;;;;5049784;28;20623;-89
2023/03/18 10:06:03;;;;;;;36.90;10.90;;;17.40;57.30;;;;;;5048971;28;20196;-89
2023/03/18 10:08:48;;;;;;;47.40;12.27;;;17.40;57.30;;;;;;5047622;28;20564;-89
2023/03/18 10:11:23;;;;;;;47.03;11.90;;;17.40;58.00;;;;;;5032933;28;20639;-92
2023/03/18 10:14:17;;;;;;;47.80;12.53;;;17.40;57.30;;;;;;5046120;28;20229;-91
2023/03/18 10:16:50;;;;;;;40.83;11.60;;;17.40;57.30;;;;;;5046821;28;20199;-94
2023/03/18 10:19:18;;;;;;;43.30;11.20;;;17.50;57.40;;;;;;5048988;28;20293;-94
2023/03/18 10:21:54;;;;;;;35.93;10.00;;;17.50;57.30;;;;;;5050593;28;20231;-95
2023/03/18 10:24:32;;;;;;;39.57;10.50;;;17.50;57.40;;;;;;5050269;28;20308;-94
2023/03/18 10:27:09;;;;;;;54.90;11.87;;;17.50;57.40;;;;;;5050067;28;20286;-94
2023/03/18 10:29:45;;;;;;;37.53;9.70;;;17.50;57.40;;;;;;5050485;28;20208;-94
2023/03/18 10:32:22;;;;;;;47.20;10.67;;;17.60;57.50;;;;;;5048193;28;20255;-93
2023/03/18 10:35:13;;;;;;;40.63;10.17;;;17.60;58.10;;;;;;5049416;28;20218;-94
2023/03/18 10:37:51;;;;;;;39.53;9.13;;;17.60;57.60;;;;;;5035634;28;20204;-94
2023/03/18 10:40:20;;;;;;;45.77;10.00;;;17.60;57.50;;;;;;5048852;28;20231;-93
2023/03/18 10:42:50;;;;;;;52.73;10.83;;;17.60;57.50;;;;;;5048784;28;21041;-94
2023/03/18 10:45:23;;;;;;;52.30;10.40;;;17.70;57.60;;;;;;5047562;28;20851;-94
2023/03/18 10:47:59;;;;;;;34.93;9.43;;;17.70;57.60;;;;;;5049444;28;20314;-93
2023/03/18 10:50:32;;;;;;;29.57;8.40;;;17.70;57.70;;;;;;5048986;28;20213;-94
2023/03/18 10:53:07;;;;;;;36.17;8.90;;;17.70;57.60;;;;;;5049152;28;20669;-94
2023/03/18 10:55:39;;;;;;;34.47;8.77;;;17.80;57.70;;;;;;5045432;28;20724;-94
2023/03/18 10:58:16;;;;;;;41.73;9.80;;;17.80;57.70;;;;;;5049647;28;20210;-94
2023/03/18 11:00:44;;;;;;;42.90;9.10;;;17.80;57.70;;;;;;5048037;28;20215;-94
2023/03/18 11:03:37;;;;;;;42.10;8.83;;;17.80;57.60;;;;;;5049511;28;20314;-94
2023/03/18 11:06:09;;;;;;;50.13;9.33;;;17.90;57.80;;;;;;5048883;28;20207;-95
2023/03/18 11:08:38;;;;;;;34.37;8.07;;;17.90;57.70;;;;;;5048997;28;20251;-94
2023/03/18 11:11:22;;;;;;;52.00;9.30;;;18.00;57.80;;;;;;5047283;28;20207;-93
2023/03/18 11:13:54;;;;;;;58.33;10.13;;;18.00;57.90;;;;;;5046681;28;20648;-93
2023/03/18 11:16:45;;;;;;;77.27;10.87;;;18.00;57.80;;;;;;5031189;28;20584;-94
2023/03/18 11:19:29;;;;;;;30.97;7.30;;;18.00;57.90;;;;;;5048123;28;20231;-93
2023/03/18 11:22:17;;;;;;;42.73;8.00;;;18.10;57.90;;;;;;5048349;28;20261;-93
2023/03/18 11:24:45;;;;;;;39.57;8.20;;;18.10;57.90;;;;;;5042908;28;20307;-94
2023/03/18 11:27:28;;;;;;;51.00;8.93;;;18.10;57.80;;;;;;5050871;28;20229;-94
2023/03/18 11:29:59;;;;;;;37.53;7.97;;;18.10;57.90;;;;;;5047669;28;20214;-93
2023/03/18 11:32:29;;;;;;;39.53;8.30;;;18.20;57.90;;;;;;5048646;28;20298;-93
2023/03/18 11:34:57;;;;;;;41.67;7.93;;;18.20;57.90;;;;;;5045046;28;20206;-93
2023/03/18 11:37:39;;;;;;;36.93;8.07;;;18.20;57.90;;;;;;5047969;28;20215;-93
2023/03/18 11:40:18;;;;;;;44.57;7.80;;;18.20;57.90;;;;;;5048799;28;20238;-93
2023/03/18 11:42:46;;;;;;;41.97;7.77;;;18.30;58.00;;;;;;5048664;28;20206;-93
2023/03/18 11:45:43;;;;;;;60.77;9.63;;;18.30;58.00;;;;;;5084861;22;20650;-93
2023/03/18 11:48:17;;;;;;;36.97;7.20;;;18.30;58.10;;;;;;5070104;22;20225;-95
2023/03/18 11:51:01;;;;;;;33.83;6.80;;;18.40;58.10;;;;;;5063090;28;20242;-94
2023/03/18 11:53:39;;;;;;;40.40;7.37;;;18.50;58.10;;;;;;5049564;28;20281;-93
2023/03/18 11:56:24;;;;;;;44.67;7.50;;;18.40;58.00;;;;;;5053833;28;20205;-93
2023/03/18 11:59:05;;;;;;;38.27;7.53;;;18.60;58.20;;;;;;5034325;28;20323;-92
2023/03/18 12:01:43;;;;;;;34.40;6.57;;;18.50;58.10;;;;;;5043102;28;20211;-95
2023/03/18 12:04:51;;;;;;;28.47;6.43;;;18.50;58.10;;;;;;5056010;22;20243;-94
2023/03/18 12:07:37;;;;;;;31.30;6.23;;;18.60;58.20;;;;;;5014160;28;20209;-94
2023/03/18 12:10:13;;;;;;;49.00;7.67;;;18.50;58.00;;;;;;5063077;28;20297;-94
2023/03/18 12:12:52;;;;;;;50.90;8.00;;;18.60;58.10;;;;;;5057558;28;20203;-94
2023/03/18 12:15:32;;;;;;;32.77;6.93;;;18.60;58.10;;;;;;5060275;28;20235;-94
2023/03/18 12:18:09;;;;;;;51.13;7.67;;;18.60;58.10;;;;;;5056077;28;20207;-92
2023/03/18 12:20:52;;;;;;;35.23;6.40;;;18.70;58.20;;;;;;5053223;28;20282;-94
2023/03/18 12:23:40;;;;;;;40.90;6.93;;;18.70;58.20;;;;;;5049233;28;20773;-94
2023/03/18 12:26:11;;;;;;;45.83;7.33;;;18.70;58.20;;;;;;5055356;28;20280;-94
2023/03/18 12:29:03;;;;;;;46.70;7.73;;;18.70;58.10;;;;;;5060853;28;20210;-93
2023/03/18 12:31:47;;;;;;;36.30;7.07;;;18.70;58.20;;;;;;5060233;28;20755;-93
2023/03/18 12:34:35;;;;;;;58.03;8.77;;;18.70;58.10;;;;;;5045946;28;20200;-93
2023/03/18 12:37:16;;;;;;;44.83;7.90;;;18.70;58.10;;;;;;5031477;28;20719;-93
2023/03/18 12:40:14;;;;;;;31.37;6.40;;;18.80;58.20;;;;;;5065061;28;20227;-93
2023/03/18 12:43:14;;;;;;;33.23;6.60;;;18.80;58.20;;;;;;5071985;28;20195;-94
2023/03/18 12:45:45;;;;;;;32.57;6.60;;;18.80;58.20;;;;;;5041647;28;20261;-94
2023/03/18 12:48:26;;;;;;;32.80;6.47;;;18.80;58.20;;;;;;5048352;28;21769;-94
2023/03/18 12:50:58;;;;;;;32.33;6.47;;;18.80;58.20;;;;;;5032877;28;20262;-94
2023/03/18 12:53:32;;;;;;;37.87;7.13;;;18.80;58.20;;;;;;5045673;28;20215;-94
2023/03/18 12:56:04;;;;;;;31.03;6.27;;;18.90;58.20;;;;;;5054179;28;20258;-94
2023/03/18 12:58:37;;;;;;;50.00;7.97;;;18.90;58.20;;;;;;5062814;22;20231;-93
2023/03/18 13:01:15;;;;;;;33.93;6.83;;;18.90;58.20;;;;;;5034464;28;20234;-94
2023/03/18 13:03:44;;;;;;;31.00;6.40;;;18.90;58.30;;;;;;5053051;28;20212;-94
2023/03/18 13:06:19;;;;;;;44.37;7.53;;;18.90;58.20;;;;;;5056711;28;20294;-93
2023/03/18 13:09:02;;;;;;;45.13;7.30;;;18.90;58.20;;;;;;5044345;28;20211;-93